Weber Basin Water
2837 E Hwy 193, Layton
Last Weather Update:11/25/2011 9:00:00 AM
Date
ETo
ETc
Rain
Irrigation
Req
Temp
Max
Temp
Min
Temp
Avg
Avg RH
Avg Wind
Avg Solar
inches
inches
incehs
inches
F
F
F
%
%
watts/m2
10/1/2011 0.14" 0.08" 0.00" 0.08" 82.0° 57.6° 70.5° 30.1% 2.7 MPH 180.4w/m2
10/2/2011 0.14" 0.08" 0.00" 0.08" 80.6° 60.8° 71.6° 29.5% 3.4 MPH 175.1w/m2
10/3/2011 0.13" 0.07" 0.00" 0.07" 82.1° 55.3° 67.7° 35.8% 2.8 MPH 177.6w/m2
10/4/2011 0.10" 0.05" 0.38" -0.33" 70.3° 54.4° 61.5° 60.4% 2.1 MPH 172.9w/m2
10/5/2011 0.07" 0.04" 0.64" -0.60" 62.5° 39.8° 54.3° 60.8% 6.2 MPH 57.3w/m2
10/6/2011 0.02" 0.01" 0.88" -0.87" 42.5° 33.8° 38.0° 83.2% 2.9 MPH 33.1w/m2
10/7/2011 0.02" 0.01" 0.05" -0.04" 42.2° 36.4° 40.1° 77.0% 2.9 MPH 27.6w/m2
10/8/2011 0.06" 0.03" 0.06" -0.03" 54.2° 37.9° 44.3° 75.5% 2.1 MPH 116.0w/m2
10/9/2011 0.10" 0.04" 0.00" 0.04" 59.1° 34.8° 46.3° 62.7% 1.4 MPH 200.5w/m2
10/10/2011 0.08" 0.03" 0.08" -0.05" 62.1° 38.1° 48.7° 62.7% 1.8 MPH 149.7w/m2
10/11/2011 0.07" 0.03" 0.02" 0.01" 65.9° 47.2° 54.1° 60.8% 2.5 MPH 126.2w/m2
10/12/2011 0.09" 0.03" 0.00" 0.03" 63.1° 40.7° 51.0° 49.1% 1.4 MPH 179.1w/m2
10/13/2011 0.10" 0.04" 0.00" 0.04" 70.8° 40.8° 54.2° 41.5% 1.6 MPH 186.5w/m2
10/14/2011 0.11" 0.03" 0.00" 0.03" 74.3° 44.5° 57.9° 42.5% 1.5 MPH 185.0w/m2
10/15/2011 0.11" 0.03" 0.00" 0.03" 77.9° 49.4° 62.8° 36.5% 1.9 MPH 173.0w/m2
10/16/2011 0.07" 0.02" 0.04" -0.02" 70.4° 49.1° 58.8° 45.1% 2.1 MPH 97.0w/m2
10/17/2011 0.08" 0.02" 0.03" -0.01" 58.0° 42.1° 49.4° 65.0% 2.1 MPH 159.0w/m2
10/18/2011 0.09" 0.02" 0.00" 0.02" 59.9° 36.1° 47.4° 53.4% 1.2 MPH 178.1w/m2
10/19/2011 0.09" 0.02" 0.00" 0.02" 65.8° 37.2° 50.5° 45.7% 1.4 MPH 175.9w/m2
10/20/2011 0.09" 0.02" 0.00" 0.02" 65.3° 40.1° 51.7° 46.3% 1.4 MPH 172.2w/m2
10/21/2011 0.09" 0.02" 0.00" 0.02" 67.7° 44.1° 54.1° 43.4% 1.7 MPH 166.6w/m2
10/22/2011 0.09" 0.01" 0.00" 0.01" 64.9° 41.4° 52.2° 45.8% 1.8 MPH 161.7w/m2
10/23/2011 0.09" 0.01" 0.00" 0.01" 68.5° 41.5° 53.1° 44.5% 1.1 MPH 167.8w/m2
10/24/2011 0.09" 0.01" 0.00" 0.01" 69.9° 43.4° 55.5° 38.7% 2.3 MPH 143.2w/m2
10/25/2011 0.05" 0.01" 0.00" 0.01" 52.6° 36.3° 44.3° 51.2% 2.5 MPH 90.3w/m2
10/26/2011 0.09" 0.01" 0.00" 0.01" 48.3° 31.0° 40.1° 38.8% 5.8 MPH 153.1w/m2
10/27/2011 0.06" 0.00" 0.00" 0.00" 49.6° 27.8° 36.6° 42.1% 2.0 MPH 152.2w/m2
10/28/2011 0.07" 0.00" 0.10" -0.10" 54.8° 27.2° 39.6° 32.0% 1.6 MPH 144.0w/m2
10/29/2011 0.06" 0.00" 0.00" 0.00" 57.8° 33.6° 43.7° 30.6% 2.0 MPH 107.8w/m2
10/30/2011 0.08" 0.00" 0.00" 0.00" 60.6° 35.9° 46.9° 45.1% 1.7 MPH 154.2w/m2
10/31/2011 0.07" 0.00" 0.00" 0.00" 63.7° 37.5° 49.3° 44.1% 1.8 MPH 133.9w/m2
Totals: 2.62" 0.80" 2.28" -1.48" 82.1° 27.2° 51.5° 49.0% 2.3 MPH 145.1w/m2